createdAt,value
2022-09-02T00:01:48.116Z,68.16
2022-09-02T00:04:22.542Z,68.58
2022-09-02T00:06:54.128Z,68.58
2022-09-02T00:09:27.451Z,68.84
2022-09-02T00:11:58.293Z,68.44
2022-09-02T00:14:33.660Z,68.83
2022-09-02T00:17:02.744Z,68.38
2022-09-02T00:19:32.900Z,68.18
2022-09-02T00:22:03.436Z,68.54
2022-09-02T00:24:33.168Z,68.43
2022-09-02T00:27:02.097Z,68.78
2022-09-02T00:29:32.326Z,68.65
2022-09-02T00:32:01.214Z,68.48
2022-09-02T00:34:30.163Z,67.79
2022-09-02T00:36:59.149Z,67.58
2022-09-02T00:39:27.979Z,67.46
2022-09-02T00:41:57.058Z,68.10
2022-09-02T00:44:26.136Z,68.52
2022-09-02T00:46:56.601Z,68.05
2022-09-02T00:49:29.200Z,69.00
2022-09-02T00:52:06.001Z,69.28
2022-09-02T00:54:41.792Z,68.98
2022-09-02T00:57:19.520Z,69.16
2022-09-02T00:59:58.713Z,69.36
2022-09-02T01:02:31.726Z,69.58
2022-09-02T01:05:04.130Z,69.30
2022-09-02T01:07:36.906Z,69.12
2022-09-02T01:10:10.114Z,69.32
2022-09-02T01:12:39.876Z,69.11
2022-09-02T01:15:12.052Z,69.18
2022-09-02T01:17:48.542Z,69.57
2022-09-02T01:20:25.620Z,69.81
2022-09-02T01:22:58.270Z,69.77
2022-09-02T01:25:31.814Z,69.69
2022-09-02T01:28:02.990Z,70.29
2022-09-02T01:30:33.055Z,70.27
2022-09-02T01:33:02.009Z,69.67
2022-09-02T01:35:31.996Z,69.72
2022-09-02T01:38:03.223Z,69.97
2022-09-02T01:40:34.059Z,70.15
2022-09-02T01:43:08.826Z,69.93
2022-09-02T01:45:40.300Z,69.81
2022-09-02T01:48:10.762Z,70.04
2022-09-02T01:50:46.759Z,69.99
2022-09-02T01:53:17.944Z,70.37
2022-09-02T01:55:46.926Z,70.57
2022-09-02T01:58:16.160Z,70.23
2022-09-02T02:00:45.532Z,70.30
2022-09-02T02:03:15.312Z,70.29
2022-09-02T02:05:45.037Z,69.96
2022-09-02T02:08:19.396Z,70.10
2022-09-02T02:10:50.154Z,70.76
2022-09-02T02:13:19.689Z,70.54
2022-09-02T02:15:48.674Z,70.23
2022-09-02T02:18:17.503Z,70.88
2022-09-02T02:20:46.516Z,70.70
2022-09-02T02:23:15.443Z,71.10
2022-09-02T02:25:45.699Z,70.56
2022-09-02T02:28:14.872Z,70.91
2022-09-02T02:30:44.510Z,70.96
2022-09-02T02:33:14.243Z,71.05
2022-09-02T02:35:43.940Z,70.87
2022-09-02T02:38:14.303Z,70.17
2022-09-02T02:40:45.904Z,70.11
2022-09-02T02:43:14.888Z,70.32
2022-09-02T02:45:43.812Z,70.48
2022-09-02T02:48:13.549Z,70.77
2022-09-02T02:50:44.015Z,70.80
2022-09-02T02:53:13.286Z,70.73
2022-09-02T02:55:44.912Z,70.73
2022-09-02T02:58:19.576Z,70.72
2022-09-02T03:00:50.306Z,70.48
2022-09-02T03:03:22.599Z,70.12
2022-09-02T03:05:55.544Z,70.25
2022-09-02T03:08:25.916Z,70.20
2022-09-02T03:10:58.167Z,70.21
2022-09-02T03:13:31.981Z,70.39
2022-09-02T03:16:05.162Z,71.15
2022-09-02T03:18:36.222Z,70.76
2022-09-02T03:21:10.366Z,70.70
2022-09-02T03:23:39.611Z,70.46
2022-09-02T03:26:20.410Z,71.13
2022-09-02T03:28:56.013Z,71.20
2022-09-02T03:31:28.649Z,71.05
2022-09-02T03:33:59.688Z,71.15
2022-09-02T03:36:34.807Z,71.53
2022-09-02T03:39:05.323Z,71.36
2022-09-02T03:41:46.441Z,71.59
2022-09-02T03:44:18.305Z,71.49
2022-09-02T03:46:47.682Z,71.28
2022-09-02T03:49:16.649Z,71.40
2022-09-02T03:51:45.967Z,71.69
2022-09-02T03:54:14.962Z,71.75
2022-09-02T03:56:45.411Z,72.13
2022-09-02T03:59:16.286Z,72.26
2022-09-02T04:01:45.366Z,71.61
2022-09-02T04:04:14.656Z,71.66
2022-09-02T04:06:43.653Z,71.77
2022-09-02T04:09:14.120Z,71.77
2022-09-02T04:11:44.760Z,71.89
2022-09-02T04:14:14.698Z,71.64
2022-09-02T04:16:46.270Z,71.92
2022-09-02T04:19:18.088Z,72.22
2022-09-02T04:21:47.356Z,71.71
2022-09-02T04:24:16.466Z,71.80
2022-09-02T04:26:50.362Z,71.75
2022-09-02T04:29:20.095Z,71.69
2022-09-02T04:31:51.854Z,71.52
2022-09-02T04:34:21.498Z,71.58
2022-09-02T04:36:53.213Z,71.77
2022-09-02T04:39:24.102Z,71.84
2022-09-02T04:41:55.703Z,71.91
2022-09-02T04:44:26.890Z,72.15
2022-09-02T04:46:55.730Z,71.94
2022-09-02T04:49:25.057Z,72.04
2022-09-02T04:51:55.800Z,71.44
2022-09-02T04:54:27.556Z,71.85
2022-09-02T04:57:02.158Z,71.98
2022-09-02T04:59:32.468Z,72.02
2022-09-02T05:02:08.647Z,72.01
2022-09-02T05:04:37.845Z,72.32
2022-09-02T05:07:12.056Z,72.04
2022-09-02T05:09:46.230Z,72.49
2022-09-02T05:12:16.948Z,72.70
2022-09-02T05:14:51.653Z,72.98
2022-09-02T05:17:23.252Z,72.74
2022-09-02T05:19:55.032Z,73.02
2022-09-02T05:22:23.843Z,73.26
2022-09-02T05:24:52.845Z,73.14
2022-09-02T05:27:24.130Z,73.14
2022-09-02T05:29:57.093Z,73.54
2022-09-02T05:32:27.175Z,73.18
2022-09-02T05:34:56.443Z,73.52
2022-09-02T05:37:26.430Z,73.68
2022-09-02T05:39:55.611Z,73.75
2022-09-02T05:42:26.156Z,73.66
2022-09-02T05:44:54.905Z,73.73
2022-09-02T05:47:25.921Z,73.77
2022-09-02T05:49:56.730Z,73.39
2022-09-02T05:52:27.441Z,73.70
2022-09-02T05:54:57.930Z,73.71
2022-09-02T05:57:28.590Z,74.26
2022-09-02T06:00:08.662Z,74.27
2022-09-02T06:02:44.785Z,74.56
2022-09-02T06:05:20.847Z,74.73
2022-09-02T06:07:57.615Z,74.93
2022-09-02T06:10:26.945Z,74.93
2022-09-02T06:12:57.969Z,75.38
2022-09-02T06:15:31.235Z,75.34
2022-09-02T06:18:02.516Z,75.60
2022-09-02T06:20:33.164Z,75.84
2022-09-02T06:23:04.281Z,75.62
2022-09-02T06:25:33.897Z,75.46
2022-09-02T06:28:07.396Z,76.10
2022-09-02T06:30:42.433Z,75.92
2022-09-02T06:33:13.229Z,76.07
2022-09-02T06:35:47.108Z,76.23
2022-09-02T06:38:20.605Z,76.38
2022-09-02T06:40:53.705Z,76.71
2022-09-02T06:43:44.981Z,76.82
2022-09-02T06:46:29.239Z,76.67
2022-09-02T06:49:00.559Z,76.98
2022-09-02T06:51:33.435Z,77.27
2022-09-02T06:54:06.374Z,77.35
2022-09-02T06:56:39.200Z,77.61
2022-09-02T06:59:11.657Z,77.64
2022-09-02T07:01:45.482Z,77.93
2022-09-02T07:04:36.312Z,77.96
2022-09-02T07:07:09.432Z,78.30
2022-09-02T07:09:44.337Z,78.28
2022-09-02T07:12:17.534Z,78.38
2022-09-02T07:14:54.650Z,78.66
2022-09-02T07:17:29.253Z,78.71
2022-09-02T07:20:04.973Z,78.37
2022-09-02T07:22:40.188Z,78.07
2022-09-02T07:25:12.865Z,78.11
2022-09-02T07:27:41.954Z,78.01
2022-09-02T07:30:14.633Z,78.00
2022-09-02T07:32:46.071Z,77.92
2022-09-02T07:35:16.519Z,77.89
2022-09-02T07:37:46.840Z,77.07
2022-09-02T07:40:15.946Z,76.37
2022-09-02T07:42:45.705Z,75.58
2022-09-02T07:45:16.048Z,75.06
2022-09-02T07:47:47.013Z,74.13
2022-09-02T07:50:20.401Z,73.69
2022-09-02T07:52:55.609Z,72.68
2022-09-02T07:55:25.912Z,72.28
2022-09-02T07:57:56.100Z,70.97
2022-09-02T08:00:28.549Z,69.96
2022-09-02T08:03:04.119Z,69.96
2022-09-02T08:05:39.390Z,69.20
2022-09-02T08:08:09.697Z,66.30
2022-09-02T08:10:39.731Z,66.01
2022-09-02T08:13:08.799Z,66.03
2022-09-02T08:15:40.127Z,65.94
2022-09-02T08:18:19.134Z,66.53
2022-09-02T08:20:52.067Z,65.94
2022-09-02T08:23:36.141Z,64.97
2022-09-02T08:26:06.686Z,63.87
2022-09-02T08:28:36.088Z,63.49
2022-09-02T08:31:08.982Z,62.24
2022-09-02T08:33:38.372Z,62.06
2022-09-02T08:36:11.217Z,58.94
2022-09-02T08:38:40.198Z,58.85
2022-09-02T08:41:22.174Z,56.99
2022-09-02T08:43:53.925Z,53.92
2022-09-02T08:46:27.139Z,51.96
2022-09-02T08:49:00.729Z,51.54
2022-09-02T08:51:37.433Z,50.81
2022-09-02T08:54:12.155Z,51.76
2022-09-02T08:56:42.252Z,50.92
2022-09-02T08:59:14.356Z,49.48
2022-09-02T09:01:54.813Z,47.65
2022-09-02T09:04:44.966Z,48.35
2022-09-02T09:07:30.918Z,50.20
2022-09-02T09:10:15.200Z,47.96
2022-09-02T09:13:05.678Z,46.81
2022-09-02T09:15:45.764Z,45.71
2022-09-02T09:18:22.067Z,47.45
2022-09-02T09:20:50.777Z,46.89
2022-09-02T09:23:34.684Z,48.86
2022-09-02T09:26:11.173Z,45.46
2022-09-02T09:28:42.519Z,45.74
2022-09-02T09:31:19.438Z,44.75
2022-09-02T09:34:01.290Z,45.46
2022-09-02T09:36:51.391Z,43.18
2022-09-02T09:39:24.596Z,44.48
2022-09-02T09:41:55.735Z,45.35
2022-09-02T09:44:46.367Z,44.84
2022-09-02T09:47:22.930Z,44.33
2022-09-02T09:49:55.879Z,45.87
2022-09-02T09:52:30.359Z,46.53
2022-09-02T09:55:24.746Z,46.83
2022-09-02T09:57:54.904Z,45.83
2022-09-02T10:00:32.184Z,46.47
2022-09-02T10:03:04.739Z,47.58
2022-09-02T10:05:39.018Z,47.67
2022-09-02T10:08:22.731Z,47.57
2022-09-02T10:11:01.511Z,51.32
2022-09-02T10:13:33.481Z,47.56
2022-09-02T10:16:31.071Z,46.88
2022-09-02T10:19:12.431Z,44.73
2022-09-02T10:22:11.627Z,43.71
2022-09-02T10:25:07.891Z,44.43
2022-09-02T10:27:50.961Z,43.55
2022-09-02T10:30:23.232Z,44.09
2022-09-02T10:33:20.844Z,43.04
2022-09-02T10:36:00.703Z,43.23
2022-09-02T10:38:45.300Z,41.41
2022-09-02T10:41:49.211Z,40.92
2022-09-02T10:44:34.112Z,41.26
2022-09-02T10:47:09.767Z,41.83
2022-09-02T10:50:05.880Z,42.05
2022-09-02T10:52:59.595Z,41.53
2022-09-02T10:55:41.915Z,43.73
2022-09-02T10:58:21.390Z,40.64
2022-09-02T11:00:57.081Z,39.03
2022-09-02T11:03:35.284Z,40.58
2022-09-02T11:06:13.278Z,39.94
2022-09-02T11:08:48.610Z,41.73
2022-09-02T11:11:26.402Z,43.53
2022-09-02T11:14:08.649Z,41.94
2022-09-02T11:16:46.507Z,43.18
2022-09-02T11:19:22.976Z,43.00
2022-09-02T11:22:04.719Z,44.21
2022-09-02T11:24:46.613Z,45.08
2022-09-02T11:27:43.291Z,41.85
2022-09-02T11:30:18.295Z,40.83
2022-09-02T11:32:56.048Z,42.56
2022-09-02T11:35:28.048Z,42.95
2022-09-02T11:38:04.590Z,42.00
2022-09-02T11:40:40.894Z,41.21
2022-09-02T11:43:37.147Z,42.47
2022-09-02T11:46:40.764Z,40.73
2022-09-02T11:49:34.772Z,42.72
2022-09-02T11:52:26.484Z,41.34
2022-09-02T11:55:09.424Z,36.80
2022-09-02T11:57:41.539Z,37.30
2022-09-02T12:00:30.793Z,37.68
2022-09-02T12:03:38.244Z,35.58
2022-09-02T12:06:14.953Z,35.78
2022-09-02T12:09:04.957Z,39.34
2022-09-02T12:11:55.186Z,40.16
2022-09-02T12:15:11.608Z,35.76
2022-09-02T12:18:13.992Z,36.05
2022-09-02T12:21:16.541Z,35.76
2022-09-02T12:24:22.350Z,37.14
2022-09-02T12:27:36.299Z,36.33
2022-09-02T12:30:09.597Z,36.06
2022-09-02T12:33:14.676Z,37.77
2022-09-02T12:36:00.534Z,36.21
2022-09-02T12:38:38.878Z,37.96
2022-09-02T12:41:40.118Z,38.56
2022-09-02T12:44:31.546Z,38.02
2022-09-02T12:47:09.993Z,37.80
2022-09-02T12:50:01.897Z,38.91
2022-09-02T12:52:48.951Z,37.04
2022-09-02T12:55:27.114Z,37.85
2022-09-02T12:58:11.904Z,35.14
2022-09-02T13:01:02.298Z,35.51
2022-09-02T13:03:58.296Z,35.56
2022-09-02T13:06:48.009Z,36.27
2022-09-02T13:10:11.139Z,36.97
2022-09-02T13:13:16.332Z,36.89
2022-09-02T13:16:16.959Z,38.03
2022-09-02T13:19:41.386Z,38.26
2022-09-02T13:22:47.167Z,37.79
2022-09-02T13:26:01.588Z,39.19
2022-09-02T13:29:17.841Z,39.04
2022-09-02T13:32:03.010Z,37.66
2022-09-02T13:34:33.242Z,37.88
2022-09-02T13:37:02.078Z,37.77
2022-09-02T13:39:32.360Z,37.66
2022-09-02T13:42:01.282Z,38.88
2022-09-02T13:44:30.731Z,39.90
2022-09-02T13:47:15.965Z,38.56
2022-09-02T13:49:49.695Z,41.28
2022-09-02T13:53:01.013Z,39.87
2022-09-02T13:55:18.341Z,41.15
2022-09-02T13:57:54.311Z,40.85
2022-09-02T14:00:34.271Z,39.96
2022-09-02T14:03:07.769Z,40.62
2022-09-02T14:05:45.350Z,38.56
2022-09-02T14:08:23.375Z,38.35
2022-09-02T14:10:55.152Z,39.72
2022-09-02T14:13:25.498Z,39.17
2022-09-02T14:15:55.738Z,38.61
2022-09-02T14:18:26.202Z,38.13
2022-09-02T14:21:01.864Z,38.34
2022-09-02T14:23:34.747Z,38.65
2022-09-02T14:26:07.125Z,37.64
2022-09-02T14:28:37.485Z,39.08
2022-09-02T14:31:09.752Z,40.56
2022-09-02T14:33:45.367Z,38.61
2022-09-02T14:36:35.139Z,38.83
2022-09-02T14:39:17.094Z,39.01
2022-09-02T14:41:51.437Z,40.88
2022-09-02T14:44:26.970Z,37.39
2022-09-02T14:47:00.866Z,37.34
2022-09-02T14:49:34.858Z,40.01
2022-09-02T14:52:17.304Z,38.24
2022-09-02T14:54:49.884Z,39.26
2022-09-02T14:57:28.701Z,38.15
2022-09-02T15:00:07.140Z,37.70
2022-09-02T15:02:38.609Z,38.82
2022-09-02T15:05:11.022Z,38.44
2022-09-02T15:07:40.416Z,40.22
2022-09-02T15:10:11.443Z,39.85
2022-09-02T15:12:49.366Z,40.21
2022-09-02T15:15:18.821Z,40.69
2022-09-02T15:17:47.829Z,39.85
2022-09-02T15:20:16.793Z,40.80
2022-09-02T15:22:45.910Z,41.10
2022-09-02T15:25:15.870Z,38.88
2022-09-02T15:27:46.671Z,41.13
2022-09-02T15:30:16.200Z,40.85
2022-09-02T15:32:45.552Z,39.86
2022-09-02T15:35:14.896Z,41.23
2022-09-02T15:37:44.586Z,41.28
2022-09-02T15:40:13.664Z,41.58
2022-09-02T15:42:43.044Z,42.26
2022-09-02T15:45:13.971Z,41.44
2022-09-02T15:47:43.687Z,42.45
2022-09-02T15:50:14.341Z,41.39
2022-09-02T15:52:53.801Z,41.53
2022-09-02T15:55:29.316Z,41.41
2022-09-02T15:57:58.520Z,43.52
2022-09-02T16:00:32.156Z,42.71
2022-09-02T16:03:01.775Z,42.38
2022-09-02T16:05:32.551Z,41.64
2022-09-02T16:08:01.722Z,41.08
2022-09-02T16:10:31.844Z,40.75
2022-09-02T16:13:03.811Z,40.50
2022-09-02T16:15:40.797Z,41.15
2022-09-02T16:18:09.574Z,43.03
2022-09-02T16:20:39.419Z,42.82
2022-09-02T16:23:08.189Z,43.57
2022-09-02T16:25:37.271Z,44.08
2022-09-02T16:28:06.560Z,44.58
2022-09-02T16:30:35.405Z,44.64
2022-09-02T16:33:06.637Z,43.61
2022-09-02T16:35:35.779Z,44.58
2022-09-02T16:38:04.912Z,45.48
2022-09-02T16:40:33.778Z,45.60
2022-09-02T16:43:02.571Z,46.18
2022-09-02T16:45:32.435Z,47.36
2022-09-02T16:48:01.798Z,47.92
2022-09-02T16:50:32.084Z,48.29
2022-09-02T16:53:01.079Z,50.02
2022-09-02T16:55:30.933Z,51.04
2022-09-02T16:58:07.317Z,50.37
2022-09-02T17:00:37.205Z,50.30
2022-09-02T17:03:06.181Z,49.22
2022-09-02T17:05:36.975Z,49.72
2022-09-02T17:08:06.803Z,50.17
2022-09-02T17:10:36.538Z,50.80
2022-09-02T17:13:05.220Z,50.63
2022-09-02T17:15:34.462Z,51.66
2022-09-02T17:18:05.226Z,52.42
2022-09-02T17:20:35.716Z,52.84
2022-09-02T17:23:05.104Z,52.93
2022-09-02T17:25:33.966Z,53.65
2022-09-02T17:28:02.934Z,53.82
2022-09-02T17:30:31.961Z,54.25
2022-09-02T17:33:01.293Z,54.97
2022-09-02T17:35:30.277Z,55.17
2022-09-02T17:38:01.070Z,54.71
2022-09-02T17:40:48.016Z,54.53
2022-09-02T17:43:19.212Z,55.54
2022-09-02T17:45:48.081Z,55.68
2022-09-02T17:48:37.011Z,55.83
2022-09-02T17:51:06.213Z,56.02
2022-09-02T17:53:37.955Z,56.15
2022-09-02T17:56:48.861Z,56.73
2022-09-02T17:59:28.483Z,56.81
2022-09-02T18:02:44.929Z,57.72
2022-09-02T18:05:28.970Z,57.31
2022-09-02T18:08:08.739Z,57.52
2022-09-02T18:10:41.540Z,58.20
2022-09-02T18:13:15.897Z,58.53
2022-09-02T18:16:00.075Z,58.26
2022-09-02T18:18:28.943Z,58.34
2022-09-02T18:21:10.737Z,58.38
2022-09-02T18:24:02.264Z,58.37
2022-09-02T18:26:55.481Z,58.67
2022-09-02T18:30:00.338Z,59.19
2022-09-02T18:33:11.485Z,58.74
2022-09-02T18:35:55.634Z,58.53
2022-09-02T18:38:38.894Z,58.45
2022-09-02T18:41:26.902Z,58.99
2022-09-02T18:44:19.359Z,59.25
2022-09-02T18:46:55.418Z,59.50
2022-09-02T18:49:30.639Z,59.71
2022-09-02T18:52:04.790Z,59.32
2022-09-02T18:54:46.770Z,59.74
2022-09-02T18:57:16.708Z,59.70
2022-09-02T19:00:10.866Z,60.04
2022-09-02T19:02:56.834Z,60.57
2022-09-02T19:05:36.400Z,60.78
2022-09-02T19:08:40.960Z,61.22
2022-09-02T19:11:15.430Z,60.79
2022-09-02T19:14:32.365Z,60.67
2022-09-02T19:17:15.082Z,60.83
2022-09-02T19:19:51.445Z,60.66
2022-09-02T19:22:28.952Z,60.80
2022-09-02T19:25:21.894Z,60.75
2022-09-02T19:28:13.726Z,61.32
2022-09-02T19:31:30.192Z,61.22
2022-09-02T19:34:18.068Z,60.88
2022-09-02T19:37:00.420Z,61.09
2022-09-02T19:39:39.134Z,61.55
2022-09-02T19:42:29.094Z,61.81
2022-09-02T19:45:14.164Z,61.81
2022-09-02T19:48:23.923Z,61.85
2022-09-02T19:50:57.400Z,61.92
2022-09-02T19:53:50.560Z,61.64
2022-09-02T19:56:25.390Z,61.77
2022-09-02T19:59:13.182Z,62.06
2022-09-02T20:01:53.345Z,62.36
2022-09-02T20:04:30.568Z,62.52
2022-09-02T20:07:27.426Z,62.46
2022-09-02T20:10:15.503Z,62.69
2022-09-02T20:12:51.042Z,62.43
2022-09-02T20:15:52.287Z,62.73
2022-09-02T20:18:34.969Z,63.01
2022-09-02T20:21:31.818Z,63.11
2022-09-02T20:24:43.314Z,63.03
2022-09-02T20:27:55.112Z,62.95
2022-09-02T20:31:03.419Z,62.71
2022-09-02T20:33:57.401Z,63.23
2022-09-02T20:37:22.101Z,62.82
2022-09-02T20:40:52.328Z,62.69
2022-09-02T20:44:24.199Z,63.25
2022-09-02T20:47:56.656Z,63.10
2022-09-02T20:50:50.866Z,62.96
2022-09-02T20:54:09.630Z,62.81
2022-09-02T20:57:40.873Z,62.85
2022-09-02T21:00:23.562Z,63.32
2022-09-02T21:03:21.876Z,63.77
2022-09-02T21:06:21.794Z,64.02
2022-09-02T21:09:06.866Z,63.50
2022-09-02T21:12:03.098Z,63.31
2022-09-02T21:15:05.884Z,63.83
2022-09-02T21:17:52.594Z,64.44
2022-09-02T21:20:38.687Z,64.45
2022-09-02T21:23:26.422Z,64.27
2022-09-02T21:26:08.009Z,64.10
2022-09-02T21:29:07.212Z,64.32
2022-09-02T21:31:51.417Z,64.44
2022-09-02T21:34:30.812Z,64.71
2022-09-02T21:37:05.949Z,64.56
2022-09-02T21:39:49.215Z,64.76
2022-09-02T21:42:40.382Z,65.51
2022-09-02T21:45:27.601Z,64.76
2022-09-02T21:48:33.675Z,64.91
2022-09-02T21:51:22.422Z,64.90
2022-09-02T21:54:26.105Z,64.27
2022-09-02T21:57:31.616Z,65.07
2022-09-02T22:00:17.837Z,64.72
2022-09-02T22:03:04.356Z,64.38
2022-09-02T22:06:00.895Z,64.52
2022-09-02T22:08:44.706Z,64.92
2022-09-02T22:11:26.662Z,64.99
2022-09-02T22:14:03.482Z,64.84
2022-09-02T22:16:51.122Z,64.97
2022-09-02T22:19:24.012Z,64.66
2022-09-02T22:22:02.777Z,65.07
2022-09-02T22:24:34.474Z,65.09
2022-09-02T22:27:13.009Z,65.23
2022-09-02T22:29:50.808Z,64.96
2022-09-02T22:32:25.325Z,65.28
2022-09-02T22:35:09.716Z,65.67
2022-09-02T22:37:53.365Z,65.85
2022-09-02T22:40:27.354Z,65.43
2022-09-02T22:43:06.703Z,65.19
2022-09-02T22:46:01.606Z,65.29
2022-09-02T22:48:55.744Z,65.97
2022-09-02T22:51:51.312Z,66.00
2022-09-02T22:54:21.856Z,65.77
2022-09-02T22:57:02.831Z,65.47
2022-09-02T22:59:48.847Z,65.87
2022-09-02T23:02:28.468Z,65.95
2022-09-02T23:05:45.602Z,66.28
2022-09-02T23:08:17.626Z,66.04
2022-09-02T23:10:57.189Z,66.24
2022-09-02T23:13:48.655Z,66.73
2022-09-02T23:16:29.963Z,66.29
2022-09-02T23:19:14.445Z,66.59
2022-09-02T23:21:55.700Z,66.21
2022-09-02T23:24:36.233Z,66.06
2022-09-02T23:27:21.299Z,66.16
2022-09-02T23:29:54.957Z,66.04
2022-09-02T23:33:03.752Z,66.66
2022-09-02T23:35:46.180Z,66.41
2022-09-02T23:38:43.198Z,66.53
2022-09-02T23:41:13.806Z,67.00
2022-09-02T23:43:45.890Z,67.05
2022-09-02T23:46:34.595Z,66.68
2022-09-02T23:49:19.170Z,67.20
2022-09-02T23:51:58.521Z,66.75
2022-09-02T23:54:50.484Z,66.46
2022-09-02T23:57:46.585Z,68.05
